sensor_id;sensor_type;location;lat;lon;timestamp;P1;durP1;ratioP1;P2;durP2;ratioP2
7025;SDS011;3554;42.132;24.786;2023-06-22T00:00:48;12.80;;;11.40;;
7025;SDS011;3554;42.132;24.786;2023-06-22T00:03:16;13.53;;;12.23;;
7025;SDS011;3554;42.132;24.786;2023-06-22T00:05:44;13.30;;;11.60;;
7025;SDS011;3554;42.132;24.786;2023-06-22T00:08:11;12.83;;;11.73;;
7025;SDS011;3554;42.132;24.786;2023-06-22T00:10:38;12.53;;;11.40;;
7025;SDS011;3554;42.132;24.786;2023-06-22T00:13:05;12.23;;;11.07;;
7025;SDS011;3554;42.132;24.786;2023-06-22T00:15:34;12.03;;;10.93;;
7025;SDS011;3554;42.132;24.786;2023-06-22T00:18:02;11.07;;;10.17;;
7025;SDS011;3554;42.132;24.786;2023-06-22T00:20:29;11.23;;;10.30;;
7025;SDS011;3554;42.132;24.786;2023-06-22T00:22:58;12.00;;;10.87;;
7025;SDS011;3554;42.132;24.786;2023-06-22T00:25:25;12.80;;;11.87;;
7025;SDS011;3554;42.132;24.786;2023-06-22T00:27:52;11.57;;;10.57;;
7025;SDS011;3554;42.132;24.786;2023-06-22T00:30:19;12.90;;;10.63;;
7025;SDS011;3554;42.132;24.786;2023-06-22T00:32:47;11.33;;;10.53;;
7025;SDS011;3554;42.132;24.786;2023-06-22T00:35:14;11.43;;;10.30;;
7025;SDS011;3554;42.132;24.786;2023-06-22T00:37:40;11.60;;;10.70;;
7025;SDS011;3554;42.132;24.786;2023-06-22T00:40:08;11.43;;;10.57;;
7025;SDS011;3554;42.132;24.786;2023-06-22T00:42:37;11.73;;;10.93;;
7025;SDS011;3554;42.132;24.786;2023-06-22T00:45:05;10.67;;;9.97;;
7025;SDS011;3554;42.132;24.786;2023-06-22T00:47:33;11.10;;;10.00;;
7025;SDS011;3554;42.132;24.786;2023-06-22T00:50:03;13.83;;;9.93;;
7025;SDS011;3554;42.132;24.786;2023-06-22T00:52:33;14.23;;;10.83;;
7025;SDS011;3554;42.132;24.786;2023-06-22T00:55:01;10.53;;;9.73;;
7025;SDS011;3554;42.132;24.786;2023-06-22T00:57:28;11.10;;;10.20;;
7025;SDS011;3554;42.132;24.786;2023-06-22T00:59:56;10.87;;;9.97;;
7025;SDS011;3554;42.132;24.786;2023-06-22T01:02:23;12.50;;;11.40;;
7025;SDS011;3554;42.132;24.786;2023-06-22T01:04:50;11.27;;;10.43;;
7025;SDS011;3554;42.132;24.786;2023-06-22T01:07:19;9.97;;;9.27;;
7025;SDS011;3554;42.132;24.786;2023-06-22T01:09:54;10.47;;;9.80;;
7025;SDS011;3554;42.132;24.786;2023-06-22T01:12:25;11.10;;;10.20;;
7025;SDS011;3554;42.132;24.786;2023-06-22T01:15:02;10.80;;;10.10;;
7025;SDS011;3554;42.132;24.786;2023-06-22T01:17:34;10.30;;;9.50;;
7025;SDS011;3554;42.132;24.786;2023-06-22T01:20:02;11.90;;;11.03;;
7025;SDS011;3554;42.132;24.786;2023-06-22T01:22:33;11.77;;;10.90;;
7025;SDS011;3554;42.132;24.786;2023-06-22T01:25:07;10.93;;;10.23;;
7025;SDS011;3554;42.132;24.786;2023-06-22T01:27:40;12.23;;;11.20;;
7025;SDS011;3554;42.132;24.786;2023-06-22T01:30:20;11.77;;;10.70;;
7025;SDS011;3554;42.132;24.786;2023-06-22T01:32:50;10.63;;;9.83;;
7025;SDS011;3554;42.132;24.786;2023-06-22T01:35:19;11.97;;;10.93;;
7025;SDS011;3554;42.132;24.786;2023-06-22T01:37:47;15.97;;;11.57;;
7025;SDS011;3554;42.132;24.786;2023-06-22T01:40:15;16.07;;;10.93;;
7025;SDS011;3554;42.132;24.786;2023-06-22T01:42:44;14.37;;;11.63;;
7025;SDS011;3554;42.132;24.786;2023-06-22T01:45:11;13.07;;;11.03;;
7025;SDS011;3554;42.132;24.786;2023-06-22T01:47:40;11.63;;;10.73;;
7025;SDS011;3554;42.132;24.786;2023-06-22T01:50:07;13.60;;;12.30;;
7025;SDS011;3554;42.132;24.786;2023-06-22T01:52:35;12.60;;;11.63;;
7025;SDS011;3554;42.132;24.786;2023-06-22T01:55:03;12.40;;;11.47;;
7025;SDS011;3554;42.132;24.786;2023-06-22T01:57:31;12.67;;;11.67;;
7025;SDS011;3554;42.132;24.786;2023-06-22T01:59:59;16.00;;;12.17;;
7025;SDS011;3554;42.132;24.786;2023-06-22T02:02:28;15.90;;;13.37;;
7025;SDS011;3554;42.132;24.786;2023-06-22T02:05:02;19.60;;;17.70;;
7025;SDS011;3554;42.132;24.786;2023-06-22T02:07:34;28.70;;;25.47;;
7025;SDS011;3554;42.132;24.786;2023-06-22T02:10:06;30.43;;;26.33;;
7025;SDS011;3554;42.132;24.786;2023-06-22T02:12:37;25.80;;;23.10;;
7025;SDS011;3554;42.132;24.786;2023-06-22T02:15:05;23.10;;;20.80;;
7025;SDS011;3554;42.132;24.786;2023-06-22T02:17:33;19.40;;;17.60;;
7025;SDS011;3554;42.132;24.786;2023-06-22T02:20:02;20.63;;;16.60;;
7025;SDS011;3554;42.132;24.786;2023-06-22T02:22:31;17.43;;;15.83;;
7025;SDS011;3554;42.132;24.786;2023-06-22T02:24:57;17.17;;;14.83;;
7025;SDS011;3554;42.132;24.786;2023-06-22T02:27:24;16.30;;;14.60;;
7025;SDS011;3554;42.132;24.786;2023-06-22T02:29:51;17.10;;;15.47;;
7025;SDS011;3554;42.132;24.786;2023-06-22T02:32:18;18.27;;;16.37;;
7025;SDS011;3554;42.132;24.786;2023-06-22T02:34:45;20.90;;;16.67;;
7025;SDS011;3554;42.132;24.786;2023-06-22T02:37:14;17.60;;;15.87;;
7025;SDS011;3554;42.132;24.786;2023-06-22T02:39:41;19.00;;;13.67;;
7025;SDS011;3554;42.132;24.786;2023-06-22T02:42:07;15.93;;;13.33;;
7025;SDS011;3554;42.132;24.786;2023-06-22T02:44:35;17.97;;;16.03;;
7025;SDS011;3554;42.132;24.786;2023-06-22T02:47:02;15.77;;;13.97;;
7025;SDS011;3554;42.132;24.786;2023-06-22T02:49:30;14.90;;;13.43;;
7025;SDS011;3554;42.132;24.786;2023-06-22T02:51:57;15.87;;;13.37;;
7025;SDS011;3554;42.132;24.786;2023-06-22T02:54:25;19.33;;;13.17;;
7025;SDS011;3554;42.132;24.786;2023-06-22T02:56:52;14.03;;;12.60;;
7025;SDS011;3554;42.132;24.786;2023-06-22T02:59:18;12.50;;;11.27;;
7025;SDS011;3554;42.132;24.786;2023-06-22T03:01:48;15.60;;;12.77;;
7025;SDS011;3554;42.132;24.786;2023-06-22T03:04:15;15.07;;;11.60;;
7025;SDS011;3554;42.132;24.786;2023-06-22T03:06:42;16.80;;;12.73;;
7025;SDS011;3554;42.132;24.786;2023-06-22T03:09:09;13.53;;;11.10;;
7025;SDS011;3554;42.132;24.786;2023-06-22T03:11:37;16.73;;;12.00;;
7025;SDS011;3554;42.132;24.786;2023-06-22T03:14:04;14.37;;;12.90;;
7025;SDS011;3554;42.132;24.786;2023-06-22T03:16:31;13.17;;;11.80;;
7025;SDS011;3554;42.132;24.786;2023-06-22T03:18:58;14.27;;;12.73;;
7025;SDS011;3554;42.132;24.786;2023-06-22T03:21:26;14.40;;;12.90;;
7025;SDS011;3554;42.132;24.786;2023-06-22T03:23:54;13.63;;;12.37;;
7025;SDS011;3554;42.132;24.786;2023-06-22T03:26:21;12.17;;;11.33;;
7025;SDS011;3554;42.132;24.786;2023-06-22T03:28:53;12.83;;;11.37;;
7025;SDS011;3554;42.132;24.786;2023-06-22T03:31:19;13.50;;;12.10;;
7025;SDS011;3554;42.132;24.786;2023-06-22T03:33:47;11.57;;;10.13;;
7025;SDS011;3554;42.132;24.786;2023-06-22T03:36:14;11.97;;;10.87;;
7025;SDS011;3554;42.132;24.786;2023-06-22T03:38:44;10.43;;;9.73;;
7025;SDS011;3554;42.132;24.786;2023-06-22T03:41:10;11.13;;;10.33;;
7025;SDS011;3554;42.132;24.786;2023-06-22T03:43:37;11.50;;;10.70;;
7025;SDS011;3554;42.132;24.786;2023-06-22T03:46:06;9.13;;;8.60;;
7025;SDS011;3554;42.132;24.786;2023-06-22T03:48:32;10.40;;;9.80;;
7025;SDS011;3554;42.132;24.786;2023-06-22T03:50:59;9.97;;;9.10;;
7025;SDS011;3554;42.132;24.786;2023-06-22T03:53:28;9.63;;;8.93;;
7025;SDS011;3554;42.132;24.786;2023-06-22T03:55:55;9.40;;;8.90;;
7025;SDS011;3554;42.132;24.786;2023-06-22T03:58:21;9.57;;;9.07;;
7025;SDS011;3554;42.132;24.786;2023-06-22T04:00:49;8.77;;;8.27;;
7025;SDS011;3554;42.132;24.786;2023-06-22T04:03:19;9.47;;;8.57;;
7025;SDS011;3554;42.132;24.786;2023-06-22T04:05:46;10.57;;;9.77;;
7025;SDS011;3554;42.132;24.786;2023-06-22T04:08:12;12.70;;;9.83;;
7025;SDS011;3554;42.132;24.786;2023-06-22T04:10:40;9.30;;;8.77;;
7025;SDS011;3554;42.132;24.786;2023-06-22T04:13:06;10.27;;;9.57;;
7025;SDS011;3554;42.132;24.786;2023-06-22T04:15:33;11.17;;;10.20;;
7025;SDS011;3554;42.132;24.786;2023-06-22T04:18:00;10.30;;;9.37;;
7025;SDS011;3554;42.132;24.786;2023-06-22T04:20:28;10.83;;;9.90;;
7025;SDS011;3554;42.132;24.786;2023-06-22T04:22:56;10.47;;;9.67;;
7025;SDS011;3554;42.132;24.786;2023-06-22T04:25:23;13.53;;;10.03;;
7025;SDS011;3554;42.132;24.786;2023-06-22T04:27:50;10.10;;;9.30;;
7025;SDS011;3554;42.132;24.786;2023-06-22T04:30:17;10.90;;;10.10;;
7025;SDS011;3554;42.132;24.786;2023-06-22T04:32:44;16.20;;;10.00;;
7025;SDS011;3554;42.132;24.786;2023-06-22T04:35:21;10.30;;;9.30;;
7025;SDS011;3554;42.132;24.786;2023-06-22T04:37:50;10.70;;;9.93;;
7025;SDS011;3554;42.132;24.786;2023-06-22T04:40:20;10.80;;;9.90;;
7025;SDS011;3554;42.132;24.786;2023-06-22T04:42:48;11.03;;;10.13;;
7025;SDS011;3554;42.132;24.786;2023-06-22T04:45:18;10.67;;;9.67;;
7025;SDS011;3554;42.132;24.786;2023-06-22T04:47:46;10.10;;;9.50;;
7025;SDS011;3554;42.132;24.786;2023-06-22T04:50:13;9.37;;;8.67;;
7025;SDS011;3554;42.132;24.786;2023-06-22T04:52:39;9.80;;;8.90;;
7025;SDS011;3554;42.132;24.786;2023-06-22T04:55:08;9.97;;;9.00;;
7025;SDS011;3554;42.132;24.786;2023-06-22T04:57:35;9.63;;;8.90;;
7025;SDS011;3554;42.132;24.786;2023-06-22T05:00:05;10.93;;;9.90;;
7025;SDS011;3554;42.132;24.786;2023-06-22T05:02:37;11.13;;;10.13;;
7025;SDS011;3554;42.132;24.786;2023-06-22T05:05:05;10.53;;;9.57;;
7025;SDS011;3554;42.132;24.786;2023-06-22T05:07:32;12.43;;;9.53;;
7025;SDS011;3554;42.132;24.786;2023-06-22T05:09:59;9.60;;;8.80;;
7025;SDS011;3554;42.132;24.786;2023-06-22T05:12:29;10.57;;;9.57;;
7025;SDS011;3554;42.132;24.786;2023-06-22T05:14:56;10.70;;;9.77;;
7025;SDS011;3554;42.132;24.786;2023-06-22T05:17:23;9.50;;;8.80;;
7025;SDS011;3554;42.132;24.786;2023-06-22T05:19:50;9.93;;;9.00;;
7025;SDS011;3554;42.132;24.786;2023-06-22T05:22:17;9.60;;;8.57;;
7025;SDS011;3554;42.132;24.786;2023-06-22T05:24:43;9.77;;;9.07;;
7025;SDS011;3554;42.132;24.786;2023-06-22T05:27:10;10.47;;;9.57;;
7025;SDS011;3554;42.132;24.786;2023-06-22T05:29:38;9.93;;;9.23;;
7025;SDS011;3554;42.132;24.786;2023-06-22T05:32:06;10.87;;;9.63;;
7025;SDS011;3554;42.132;24.786;2023-06-22T05:34:33;9.93;;;9.07;;
7025;SDS011;3554;42.132;24.786;2023-06-22T05:37:00;24.40;;;9.70;;
7025;SDS011;3554;42.132;24.786;2023-06-22T05:39:28;10.73;;;9.97;;
7025;SDS011;3554;42.132;24.786;2023-06-22T05:41:55;11.03;;;9.63;;
7025;SDS011;3554;42.132;24.786;2023-06-22T05:44:22;11.27;;;10.13;;
7025;SDS011;3554;42.132;24.786;2023-06-22T05:46:50;10.63;;;9.53;;
7025;SDS011;3554;42.132;24.786;2023-06-22T05:49:17;11.83;;;9.97;;
7025;SDS011;3554;42.132;24.786;2023-06-22T05:51:44;10.37;;;9.67;;
7025;SDS011;3554;42.132;24.786;2023-06-22T05:54:10;10.43;;;9.63;;
7025;SDS011;3554;42.132;24.786;2023-06-22T05:56:38;10.87;;;10.07;;
7025;SDS011;3554;42.132;24.786;2023-06-22T05:59:05;10.70;;;9.80;;
7025;SDS011;3554;42.132;24.786;2023-06-22T06:01:32;13.50;;;9.37;;
7025;SDS011;3554;42.132;24.786;2023-06-22T06:04:02;9.97;;;9.43;;
7025;SDS011;3554;42.132;24.786;2023-06-22T06:06:30;10.17;;;9.40;;
7025;SDS011;3554;42.132;24.786;2023-06-22T06:08:56;9.97;;;9.03;;
7025;SDS011;3554;42.132;24.786;2023-06-22T06:11:24;9.50;;;8.57;;
7025;SDS011;3554;42.132;24.786;2023-06-22T06:13:51;9.37;;;8.77;;
7025;SDS011;3554;42.132;24.786;2023-06-22T06:16:18;9.17;;;8.57;;
7025;SDS011;3554;42.132;24.786;2023-06-22T06:18:45;9.67;;;8.73;;
7025;SDS011;3554;42.132;24.786;2023-06-22T06:21:15;9.17;;;8.77;;
7025;SDS011;3554;42.132;24.786;2023-06-22T06:23:41;9.27;;;8.77;;
7025;SDS011;3554;42.132;24.786;2023-06-22T06:26:08;10.17;;;8.80;;
7025;SDS011;3554;42.132;24.786;2023-06-22T06:28:35;10.07;;;9.07;;
7025;SDS011;3554;42.132;24.786;2023-06-22T06:31:02;9.23;;;8.03;;
7025;SDS011;3554;42.132;24.786;2023-06-22T06:33:32;9.67;;;9.03;;
7025;SDS011;3554;42.132;24.786;2023-06-22T06:35:58;8.33;;;7.90;;
7025;SDS011;3554;42.132;24.786;2023-06-22T06:38:29;13.50;;;8.53;;
7025;SDS011;3554;42.132;24.786;2023-06-22T06:40:56;8.70;;;8.10;;
7025;SDS011;3554;42.132;24.786;2023-06-22T06:43:24;8.80;;;8.10;;
7025;SDS011;3554;42.132;24.786;2023-06-22T06:45:51;8.57;;;7.70;;
7025;SDS011;3554;42.132;24.786;2023-06-22T06:48:18;9.67;;;8.63;;
7025;SDS011;3554;42.132;24.786;2023-06-22T06:50:44;8.60;;;8.10;;
7025;SDS011;3554;42.132;24.786;2023-06-22T06:53:11;9.20;;;8.50;;
7025;SDS011;3554;42.132;24.786;2023-06-22T06:55:39;8.93;;;8.27;;
7025;SDS011;3554;42.132;24.786;2023-06-22T06:58:06;8.80;;;8.20;;
7025;SDS011;3554;42.132;24.786;2023-06-22T07:00:35;9.10;;;7.83;;
7025;SDS011;3554;42.132;24.786;2023-06-22T07:03:02;8.07;;;7.60;;
7025;SDS011;3554;42.132;24.786;2023-06-22T07:05:29;9.37;;;7.30;;
7025;SDS011;3554;42.132;24.786;2023-06-22T07:07:56;12.03;;;8.00;;
7025;SDS011;3554;42.132;24.786;2023-06-22T07:10:22;8.83;;;8.00;;
7025;SDS011;3554;42.132;24.786;2023-06-22T07:12:51;9.17;;;8.37;;
7025;SDS011;3554;42.132;24.786;2023-06-22T07:15:18;8.77;;;8.17;;
7025;SDS011;3554;42.132;24.786;2023-06-22T07:17:45;7.90;;;7.47;;
7025;SDS011;3554;42.132;24.786;2023-06-22T07:20:11;8.33;;;7.70;;
7025;SDS011;3554;42.132;24.786;2023-06-22T07:22:39;10.03;;;8.20;;
7025;SDS011;3554;42.132;24.786;2023-06-22T07:25:06;8.93;;;8.23;;
7025;SDS011;3554;42.132;24.786;2023-06-22T07:27:35;10.13;;;8.13;;
7025;SDS011;3554;42.132;24.786;2023-06-22T07:30:07;7.70;;;7.10;;
7025;SDS011;3554;42.132;24.786;2023-06-22T07:32:34;8.40;;;7.80;;
7025;SDS011;3554;42.132;24.786;2023-06-22T07:35:01;8.17;;;7.57;;
7025;SDS011;3554;42.132;24.786;2023-06-22T07:37:29;10.97;;;7.60;;
7025;SDS011;3554;42.132;24.786;2023-06-22T07:39:55;8.17;;;7.77;;
7025;SDS011;3554;42.132;24.786;2023-06-22T07:42:24;8.60;;;8.07;;
7025;SDS011;3554;42.132;24.786;2023-06-22T07:44:50;9.00;;;8.30;;
7025;SDS011;3554;42.132;24.786;2023-06-22T07:47:19;7.93;;;7.50;;
7025;SDS011;3554;42.132;24.786;2023-06-22T07:49:50;8.50;;;7.93;;
7025;SDS011;3554;42.132;24.786;2023-06-22T07:52:17;8.93;;;8.20;;
7025;SDS011;3554;42.132;24.786;2023-06-22T07:54:43;8.60;;;7.97;;
7025;SDS011;3554;42.132;24.786;2023-06-22T07:57:10;7.30;;;6.57;;
7025;SDS011;3554;42.132;24.786;2023-06-22T07:59:37;8.00;;;7.27;;
7025;SDS011;3554;42.132;24.786;2023-06-22T08:02:04;7.30;;;6.63;;
7025;SDS011;3554;42.132;24.786;2023-06-22T08:04:35;6.80;;;6.40;;
7025;SDS011;3554;42.132;24.786;2023-06-22T08:07:01;6.60;;;6.30;;
7025;SDS011;3554;42.132;24.786;2023-06-22T08:09:30;8.20;;;7.13;;
7025;SDS011;3554;42.132;24.786;2023-06-22T08:11:57;7.50;;;6.70;;
7025;SDS011;3554;42.132;24.786;2023-06-22T08:14:25;6.88;;;6.38;;
7025;SDS011;3554;42.132;24.786;2023-06-22T08:16:52;7.15;;;6.75;;
7025;SDS011;3554;42.132;24.786;2023-06-22T08:19:19;6.88;;;6.43;;
7025;SDS011;3554;42.132;24.786;2023-06-22T08:21:47;7.05;;;6.40;;
7025;SDS011;3554;42.132;24.786;2023-06-22T08:24:14;8.32;;;6.50;;
7025;SDS011;3554;42.132;24.786;2023-06-22T08:26:41;6.95;;;6.55;;
7025;SDS011;3554;42.132;24.786;2023-06-22T08:29:08;6.53;;;6.20;;
7025;SDS011;3554;42.132;24.786;2023-06-22T08:31:35;6.70;;;6.25;;
7025;SDS011;3554;42.132;24.786;2023-06-22T08:34:02;7.15;;;6.85;;
7025;SDS011;3554;42.132;24.786;2023-06-22T08:36:29;7.05;;;6.45;;
7025;SDS011;3554;42.132;24.786;2023-06-22T08:38:59;7.63;;;7.00;;
7025;SDS011;3554;42.132;24.786;2023-06-22T08:41:27;6.97;;;6.32;;
7025;SDS011;3554;42.132;24.786;2023-06-22T08:43:54;6.60;;;6.30;;
7025;SDS011;3554;42.132;24.786;2023-06-22T08:46:22;6.88;;;6.47;;
7025;SDS011;3554;42.132;24.786;2023-06-22T08:48:55;7.68;;;7.07;;
7025;SDS011;3554;42.132;24.786;2023-06-22T08:51:22;7.72;;;6.65;;
7025;SDS011;3554;42.132;24.786;2023-06-22T08:53:49;11.75;;;7.05;;
7025;SDS011;3554;42.132;24.786;2023-06-22T08:56:17;6.10;;;5.70;;
7025;SDS011;3554;42.132;24.786;2023-06-22T08:58:44;6.68;;;6.28;;
7025;SDS011;3554;42.132;24.786;2023-06-22T09:01:11;6.78;;;6.47;;
7025;SDS011;3554;42.132;24.786;2023-06-22T09:03:37;6.63;;;6.22;;
7025;SDS011;3554;42.132;24.786;2023-06-22T09:06:04;6.90;;;6.38;;
7025;SDS011;3554;42.132;24.786;2023-06-22T09:08:31;7.25;;;6.60;;
7025;SDS011;3554;42.132;24.786;2023-06-22T09:10:58;7.30;;;6.75;;
7025;SDS011;3554;42.132;24.786;2023-06-22T09:13:27;7.90;;;7.00;;
7025;SDS011;3554;42.132;24.786;2023-06-22T09:15:56;6.85;;;6.45;;
7025;SDS011;3554;42.132;24.786;2023-06-22T09:18:23;7.38;;;6.82;;
7025;SDS011;3554;42.132;24.786;2023-06-22T09:20:50;6.68;;;6.13;;
7025;SDS011;3554;42.132;24.786;2023-06-22T09:23:17;7.38;;;6.65;;
7025;SDS011;3554;42.132;24.786;2023-06-22T09:25:44;7.55;;;7.00;;
7025;SDS011;3554;42.132;24.786;2023-06-22T09:28:12;6.30;;;6.10;;
7025;SDS011;3554;42.132;24.786;2023-06-22T09:30:42;7.55;;;7.03;;
7025;SDS011;3554;42.132;24.786;2023-06-22T09:33:09;7.90;;;7.50;;
7025;SDS011;3554;42.132;24.786;2023-06-22T09:35:36;8.10;;;7.57;;
7025;SDS011;3554;42.132;24.786;2023-06-22T09:38:03;6.82;;;6.32;;
7025;SDS011;3554;42.132;24.786;2023-06-22T09:40:30;7.10;;;6.72;;
7025;SDS011;3554;42.132;24.786;2023-06-22T09:43:00;6.38;;;6.07;;
7025;SDS011;3554;42.132;24.786;2023-06-22T09:45:27;7.07;;;6.47;;
7025;SDS011;3554;42.132;24.786;2023-06-22T09:47:55;14.65;;;7.97;;
7025;SDS011;3554;42.132;24.786;2023-06-22T09:50:22;6.85;;;6.55;;
7025;SDS011;3554;42.132;24.786;2023-06-22T09:52:49;7.40;;;6.70;;
7025;SDS011;3554;42.132;24.786;2023-06-22T09:55:19;7.68;;;7.18;;
7025;SDS011;3554;42.132;24.786;2023-06-22T09:57:46;6.57;;;6.28;;
7025;SDS011;3554;42.132;24.786;2023-06-22T10:00:13;6.70;;;6.15;;
7025;SDS011;3554;42.132;24.786;2023-06-22T10:02:42;6.70;;;6.40;;
7025;SDS011;3554;42.132;24.786;2023-06-22T10:05:10;6.97;;;6.47;;
7025;SDS011;3554;42.132;24.786;2023-06-22T10:07:37;6.35;;;5.95;;
7025;SDS011;3554;42.132;24.786;2023-06-22T10:10:07;6.72;;;6.32;;
7025;SDS011;3554;42.132;24.786;2023-06-22T10:12:35;6.70;;;6.32;;
7025;SDS011;3554;42.132;24.786;2023-06-22T10:15:02;6.38;;;5.97;;
7025;SDS011;3554;42.132;24.786;2023-06-22T10:17:29;6.65;;;6.15;;
7025;SDS011;3554;42.132;24.786;2023-06-22T10:19:56;6.90;;;6.35;;
7025;SDS011;3554;42.132;24.786;2023-06-22T10:22:24;7.03;;;6.72;;
7025;SDS011;3554;42.132;24.786;2023-06-22T10:24:51;7.72;;;7.20;;
7025;SDS011;3554;42.132;24.786;2023-06-22T10:27:18;7.20;;;6.70;;
7025;SDS011;3554;42.132;24.786;2023-06-22T10:29:45;6.47;;;5.93;;
7025;SDS011;3554;42.132;24.786;2023-06-22T10:32:12;5.82;;;5.53;;
7025;SDS011;3554;42.132;24.786;2023-06-22T10:34:38;6.70;;;6.30;;
7025;SDS011;3554;42.132;24.786;2023-06-22T10:37:05;7.68;;;6.93;;
7025;SDS011;3554;42.132;24.786;2023-06-22T10:39:34;7.05;;;6.45;;
7025;SDS011;3554;42.132;24.786;2023-06-22T10:42:00;6.80;;;6.40;;
7025;SDS011;3554;42.132;24.786;2023-06-22T10:44:27;7.57;;;7.00;;
7025;SDS011;3554;42.132;24.786;2023-06-22T10:46:54;7.53;;;7.10;;
7025;SDS011;3554;42.132;24.786;2023-06-22T10:49:21;7.40;;;6.90;;
7025;SDS011;3554;42.132;24.786;2023-06-22T10:51:47;7.30;;;6.80;;
7025;SDS011;3554;42.132;24.786;2023-06-22T10:54:14;7.15;;;6.53;;
7025;SDS011;3554;42.132;24.786;2023-06-22T10:56:44;6.72;;;6.43;;
7025;SDS011;3554;42.132;24.786;2023-06-22T10:59:11;6.80;;;6.40;;
7025;SDS011;3554;42.132;24.786;2023-06-22T11:01:38;7.47;;;7.07;;
7025;SDS011;3554;42.132;24.786;2023-06-22T11:04:05;7.93;;;7.32;;
7025;SDS011;3554;42.132;24.786;2023-06-22T11:06:31;6.88;;;6.50;;
7025;SDS011;3554;42.132;24.786;2023-06-22T11:08:58;7.85;;;7.13;;
7025;SDS011;3554;42.132;24.786;2023-06-22T11:11:25;6.72;;;6.35;;
7025;SDS011;3554;42.132;24.786;2023-06-22T11:13:53;7.63;;;7.15;;
7025;SDS011;3554;42.132;24.786;2023-06-22T11:16:20;6.63;;;6.32;;
7025;SDS011;3554;42.132;24.786;2023-06-22T11:18:47;7.90;;;7.28;;
7025;SDS011;3554;42.132;24.786;2023-06-22T11:21:14;7.85;;;7.13;;
7025;SDS011;3554;42.132;24.786;2023-06-22T11:23:41;7.57;;;7.18;;
7025;SDS011;3554;42.132;24.786;2023-06-22T11:26:08;6.70;;;6.40;;
7025;SDS011;3554;42.132;24.786;2023-06-22T11:28:35;6.93;;;6.45;;
7025;SDS011;3554;42.132;24.786;2023-06-22T11:31:03;6.93;;;6.20;;
7025;SDS011;3554;42.132;24.786;2023-06-22T11:33:32;6.68;;;6.38;;
7025;SDS011;3554;42.132;24.786;2023-06-22T11:35:58;7.13;;;6.47;;
7025;SDS011;3554;42.132;24.786;2023-06-22T11:38:26;6.85;;;6.35;;
7025;SDS011;3554;42.132;24.786;2023-06-22T11:40:52;7.00;;;6.53;;
7025;SDS011;3554;42.132;24.786;2023-06-22T11:43:19;6.53;;;6.22;;
7025;SDS011;3554;42.132;24.786;2023-06-22T11:45:46;6.80;;;6.30;;
7025;SDS011;3554;42.132;24.786;2023-06-22T11:48:14;7.22;;;6.75;;
7025;SDS011;3554;42.132;24.786;2023-06-22T11:50:41;6.97;;;6.47;;
7025;SDS011;3554;42.132;24.786;2023-06-22T11:53:08;7.38;;;6.97;;
7025;SDS011;3554;42.132;24.786;2023-06-22T11:55:35;6.90;;;6.60;;
7025;SDS011;3554;42.132;24.786;2023-06-22T11:58:02;6.93;;;6.63;;
7025;SDS011;3554;42.132;24.786;2023-06-22T12:00:30;6.85;;;6.55;;
7025;SDS011;3554;42.132;24.786;2023-06-22T12:02:57;7.00;;;6.50;;
7025;SDS011;3554;42.132;24.786;2023-06-22T12:05:25;6.78;;;6.22;;
7025;SDS011;3554;42.132;24.786;2023-06-22T12:07:53;7.22;;;6.72;;
7025;SDS011;3554;42.132;24.786;2023-06-22T12:10:19;6.90;;;6.50;;
7025;SDS011;3554;42.132;24.786;2023-06-22T12:12:46;6.68;;;6.18;;
7025;SDS011;3554;42.132;24.786;2023-06-22T12:15:13;7.53;;;6.95;;
7025;SDS011;3554;42.132;24.786;2023-06-22T12:17:40;7.30;;;6.80;;
7025;SDS011;3554;42.132;24.786;2023-06-22T12:20:07;6.90;;;6.60;;
7025;SDS011;3554;42.132;24.786;2023-06-22T12:22:36;6.53;;;6.10;;
7025;SDS011;3554;42.132;24.786;2023-06-22T12:25:04;7.05;;;6.72;;
7025;SDS011;3554;42.132;24.786;2023-06-22T12:27:31;6.47;;;6.07;;
7025;SDS011;3554;42.132;24.786;2023-06-22T12:29:58;6.50;;;6.20;;
7025;SDS011;3554;42.132;24.786;2023-06-22T12:32:24;7.03;;;6.65;;
7025;SDS011;3554;42.132;24.786;2023-06-22T12:34:51;6.93;;;6.53;;
7025;SDS011;3554;42.132;24.786;2023-06-22T12:37:18;6.18;;;5.88;;
7025;SDS011;3554;42.132;24.786;2023-06-22T12:39:47;6.18;;;5.90;;
7025;SDS011;3554;42.132;24.786;2023-06-22T12:42:14;7.57;;;6.88;;
7025;SDS011;3554;42.132;24.786;2023-06-22T12:44:41;6.53;;;6.22;;
7025;SDS011;3554;42.132;24.786;2023-06-22T12:47:08;7.30;;;6.80;;
7025;SDS011;3554;42.132;24.786;2023-06-22T12:49:36;6.70;;;6.40;;
7025;SDS011;3554;42.132;24.786;2023-06-22T12:52:04;7.32;;;6.63;;
7025;SDS011;3554;42.132;24.786;2023-06-22T12:54:35;6.55;;;6.18;;
7025;SDS011;3554;42.132;24.786;2023-06-22T12:57:03;6.90;;;6.60;;
7025;SDS011;3554;42.132;24.786;2023-06-22T12:59:31;6.53;;;6.30;;
7025;SDS011;3554;42.132;24.786;2023-06-22T13:01:58;5.90;;;5.70;;
7025;SDS011;3554;42.132;24.786;2023-06-22T13:04:24;7.25;;;6.85;;
7025;SDS011;3554;42.132;24.786;2023-06-22T13:06:51;6.75;;;6.35;;
7025;SDS011;3554;42.132;24.786;2023-06-22T13:09:18;7.03;;;6.72;;
7025;SDS011;3554;42.132;24.786;2023-06-22T13:11:45;6.93;;;6.47;;
7025;SDS011;3554;42.132;24.786;2023-06-22T13:14:13;7.30;;;6.72;;
7025;SDS011;3554;42.132;24.786;2023-06-22T13:16:41;7.18;;;6.60;;
7025;SDS011;3554;42.132;24.786;2023-06-22T13:19:08;7.38;;;6.88;;
7025;SDS011;3554;42.132;24.786;2023-06-22T13:21:35;7.18;;;6.78;;
7025;SDS011;3554;42.132;24.786;2023-06-22T13:24:01;7.00;;;6.55;;
7025;SDS011;3554;42.132;24.786;2023-06-22T13:26:28;6.82;;;6.35;;
7025;SDS011;3554;42.132;24.786;2023-06-22T13:28:55;7.55;;;7.10;;
7025;SDS011;3554;42.132;24.786;2023-06-22T13:31:23;6.80;;;6.50;;
7025;SDS011;3554;42.132;24.786;2023-06-22T13:33:50;6.57;;;6.18;;
7025;SDS011;3554;42.132;24.786;2023-06-22T13:36:17;6.38;;;6.07;;
7025;SDS011;3554;42.132;24.786;2023-06-22T13:38:44;6.93;;;6.32;;
7025;SDS011;3554;42.132;24.786;2023-06-22T13:41:12;7.10;;;6.45;;
7025;SDS011;3554;42.132;24.786;2023-06-22T13:43:39;6.30;;;6.10;;
7025;SDS011;3554;42.132;24.786;2023-06-22T13:46:05;6.65;;;6.22;;
7025;SDS011;3554;42.132;24.786;2023-06-22T13:48:34;7.32;;;6.88;;
7025;SDS011;3554;42.132;24.786;2023-06-22T13:51:00;6.72;;;6.43;;
7025;SDS011;3554;42.132;24.786;2023-06-22T13:53:27;6.72;;;6.43;;
7025;SDS011;3554;42.132;24.786;2023-06-22T13:55:55;6.50;;;6.00;;
7025;SDS011;3554;42.132;24.786;2023-06-22T13:58:24;7.13;;;6.72;;
7025;SDS011;3554;42.132;24.786;2023-06-22T14:00:51;8.05;;;7.32;;
7025;SDS011;3554;42.132;24.786;2023-06-22T14:03:17;7.70;;;7.13;;
7025;SDS011;3554;42.132;24.786;2023-06-22T14:05:45;7.40;;;6.68;;
7025;SDS011;3554;42.132;24.786;2023-06-22T14:08:13;7.40;;;7.10;;
7025;SDS011;3554;42.132;24.786;2023-06-22T14:10:40;7.25;;;6.95;;
7025;SDS011;3554;42.132;24.786;2023-06-22T14:13:06;7.53;;;6.95;;
7025;SDS011;3554;42.132;24.786;2023-06-22T14:15:33;7.38;;;6.88;;
7025;SDS011;3554;42.132;24.786;2023-06-22T14:18:00;7.60;;;7.20;;
7025;SDS011;3554;42.132;24.786;2023-06-22T14:20:27;7.07;;;6.68;;
7025;SDS011;3554;42.132;24.786;2023-06-22T14:22:55;8.45;;;6.90;;
7025;SDS011;3554;42.132;24.786;2023-06-22T14:25:22;8.13;;;7.45;;
7025;SDS011;3554;42.132;24.786;2023-06-22T14:27:48;8.20;;;7.47;;
7025;SDS011;3554;42.132;24.786;2023-06-22T14:30:15;8.75;;;8.10;;
7025;SDS011;3554;42.132;24.786;2023-06-22T14:32:43;9.00;;;8.43;;
7025;SDS011;3554;42.132;24.786;2023-06-22T14:35:10;8.05;;;7.55;;
7025;SDS011;3554;42.132;24.786;2023-06-22T14:37:37;8.15;;;7.75;;
7025;SDS011;3554;42.132;24.786;2023-06-22T14:40:06;8.53;;;8.03;;
7025;SDS011;3554;42.132;24.786;2023-06-22T14:42:33;8.57;;;8.07;;
7025;SDS011;3554;42.132;24.786;2023-06-22T14:45:00;8.90;;;8.02;;
7025;SDS011;3554;42.132;24.786;2023-06-22T14:47:27;9.40;;;7.70;;
7025;SDS011;3554;42.132;24.786;2023-06-22T14:49:54;8.87;;;8.33;;
7025;SDS011;3554;42.132;24.786;2023-06-22T14:52:21;8.37;;;7.87;;
7025;SDS011;3554;42.132;24.786;2023-06-22T14:54:47;9.77;;;8.67;;